Tarifa en Andalucia

latitud = 36° 01' 08''N | longitud = 005° 35' 58''W
56 metros sobre el nivel del mar | datos mensuales

Fecha, hora, temperatura, viento dirección y velocidad, humedad y presión.

  • 14-10-2018 19:00:00 | 19.00°C | Oeste |27.00 km/h | 41.00% | 0.00 hPa
  • 14-10-2018 18:00:00 | 19.40°C | Oeste |27.00 km/h | 39.00% | 0.00 hPa
  • 14-10-2018 17:00:00 | 19.70°C | Oeste |30.00 km/h | 38.00% | 0.00 hPa
  • 14-10-2018 16:00:00 | 18.90°C | Oeste |33.00 km/h | 42.00% | 0.00 hPa
  • 14-10-2018 15:00:00 | 19.20°C | Oeste |31.00 km/h | 42.00% | 0.00 hPa
  • 14-10-2018 14:00:00 | 19.80°C | Noroeste |22.00 km/h | 38.00% | 0.00 hPa
  • 14-10-2018 13:00:00 | 19.00°C | Oeste |18.00 km/h | 57.00% | 0.00 hPa
  • 14-10-2018 12:00:00 | 17.10°C | Noroeste |16.00 km/h | 77.00% | 0.00 hPa
  • 14-10-2018 11:00:00 | 16.30°C | Noroeste |10.00 km/h | 81.00% | 0.00 hPa
  • 14-10-2018 10:00:00 | 17.20°C | Noroeste |21.00 km/h | 77.00% | 0.00 hPa
  • 14-10-2018 09:00:00 | 18.00°C | Noroeste |19.00 km/h | 71.00% | 0.00 hPa
  • 14-10-2018 08:00:00 | 19.90°C | Noroeste |17.00 km/h | 79.00% | 0.00 hPa
  • 14-10-2018 07:00:00 | 20.30°C | Sur |6.00 km/h | 79.00% | 0.00 hPa
  • 14-10-2018 06:00:00 | 20.80°C | Este |6.00 km/h | 77.00% | 0.00 hPa
  • 14-10-2018 05:00:00 | 20.70°C | Este |8.00 km/h | 77.00% | 0.00 hPa
  • 14-10-2018 04:00:00 | 20.70°C | Este |12.00 km/h | 75.00% | 0.00 hPa
  • 14-10-2018 03:00:00 | 20.50°C | Este |23.00 km/h | 77.00% | 0.00 hPa
  • 14-10-2018 02:00:00 | 20.60°C | Este |18.00 km/h | 78.00% | 0.00 hPa
  • 14-10-2018 01:00:00 | 20.50°C | Este |26.00 km/h | 78.00% | 0.00 hPa
  • 14-10-2018 00:00:00 | 20.60°C | Este |26.00 km/h | 79.00% | 0.00 hPa
  • 13-10-2018 23:00:00 | 20.50°C | Este |27.00 km/h | 79.00% | 0.00 hPa
  • 13-10-2018 22:00:00 | 20.80°C | Este |30.00 km/h | 77.00% | 0.00 hPa
  • 13-10-2018 21:00:00 | 20.80°C | Este |30.00 km/h | 77.00% | 0.00 hPa
  • 13-10-2018 20:00:00 | 21.20°C | Este |27.00 km/h | 74.00% | 0.00 hPa